Station Historical Data
Daily Summary for April 6, 2017 Units:  Both    English   Metric
« Previous Day
Next Day »
Daily Weekly Monthly Yearly Custom
  High: Low: Average:
Temperature: 54.3 °F /  12.4 °C 32.9 °F /  0.5 °C 46.3 °F /  7.9 °C
Dew Point: 49.8 °F /  9.9 °C 30.8 °F /  -0.7 °C 42.7 °F /  5.9 °C
Humidity: 93% 79% 88%
Wind Speed: 14.0mph /  22.5km/h - 3.9mph /  6.3km/h
Wind Gust: 19.0mph /  30.6km/h - -
Wind- - SE
Pressure: 29.67 in /  1004.6 hPa 29.19 in /  988.4 hPa -
Precipitation: 0.00 in /  0 mm    
Historical Graphs
 
 
Tabular Data for April 6, 2017
Time Temperature Dew Point Pressure Wind Wind Speed Wind Gust Humidity Rainfall Rate (Hourly)
00:04 43.1 °F /  6.2 °C 37.0 °F /  2.8 °C 29.67in /  1004.6hPa NE 9.0mph /  14.5km/h 15.0mph /  24.1km/h 79% 0.00in /  0mm
00:09 43.1 °F /  6.2 °C 37.0 °F /  2.8 °C 29.67in /  1004.6hPa NE 9.0mph /  14.5km/h 17.0mph /  27.4km/h 79% 0.00in /  0mm
00:14 43.1 °F /  6.2 °C 37.3 °F /  2.9 °C 29.67in /  1004.6hPa NE 9.0mph /  14.5km/h 17.0mph /  27.4km/h 80% 0.00in /  0mm
00:19 43.1 °F /  6.2 °C 37.3 °F /  2.9 °C 29.67in /  1004.6hPa NE 9.0mph /  14.5km/h 16.0mph /  25.7km/h 80% 0.00in /  0mm
00:24 43.0 °F /  6.1 °C 37.3 °F /  2.9 °C 29.67in /  1004.6hPa NE 9.0mph /  14.5km/h 17.0mph /  27.4km/h 80% 0.00in /  0mm
00:29 43.0 °F /  6.1 °C 37.3 °F /  2.9 °C 29.67in /  1004.6hPa NNE 6.0mph /  9.7km/h 14.0mph /  22.5km/h 80% 0.00in /  0mm
00:39 43.0 °F /  6.1 °C 37.3 °F /  2.9 °C 29.67in /  1004.6hPa ENE 14.0mph /  22.5km/h 17.0mph /  27.4km/h 80% 0.00in /  0mm
00:44 43.1 °F /  6.2 °C 37.3 °F /  2.9 °C 29.66in /  1004.3hPa NE 6.0mph /  9.7km/h 16.0mph /  25.7km/h 80% 0.00in /  0mm
00:49 43.2 °F /  6.2 °C 37.4 °F /  3 °C 29.66in /  1004.3hPa NE 4.0mph /  6.4km/h 15.0mph /  24.1km/h 80% 0.00in /  0mm
00:54 43.2 °F /  6.2 °C 37.4 °F /  3 °C 29.65in /  1003.9hPa NE 6.0mph /  9.7km/h 13.0mph /  20.9km/h 80% 0.00in /  0mm
00:59 43.3 °F /  6.3 °C 37.5 °F /  3.1 °C 29.64in /  1003.6hPa East 10.0mph /  16.1km/h 16.0mph /  25.7km/h 80% 0.00in /  0mm
01:04 43.4 °F /  6.3 °C 37.6 °F /  3.1 °C 29.64in /  1003.6hPa ENE 8.0mph /  12.9km/h 17.0mph /  27.4km/h 80% 0.00in /  0mm
01:09 43.4 °F /  6.3 °C 37.6 °F /  3.1 °C 29.64in /  1003.6hPa ENE 8.0mph /  12.9km/h 17.0mph /  27.4km/h 80% 0.00in /  0mm
01:14 43.4 °F /  6.3 °C 37.6 °F /  3.1 °C 29.63in /  1003.3hPa ENE 7.0mph /  11.3km/h 17.0mph /  27.4km/h 80% 0.00in /  0mm
01:19 43.3 °F /  6.3 °C 37.5 °F /  3.1 °C 29.63in /  1003.3hPa ENE 6.0mph /  9.7km/h 17.0mph /  27.4km/h 80% 0.00in /  0mm
01:29 43.3 °F /  6.3 °C 37.5 °F /  3.1 °C 29.62in /  1002.9hPa ENE 6.0mph /  9.7km/h 13.0mph /  20.9km/h 80% 0.00in /  0mm
01:34 43.3 °F /  6.3 °C 37.5 °F /  3.1 °C 29.62in /  1002.9hPa ENE 8.0mph /  12.9km/h 14.0mph /  22.5km/h 80% 0.00in /  0mm
01:39 43.3 °F /  6.3 °C 37.5 °F /  3.1 °C 29.62in /  1002.9hPa ENE 7.0mph /  11.3km/h 14.0mph /  22.5km/h 80% 0.00in /  0mm
01:44 43.4 °F /  6.3 °C 37.6 °F /  3.1 °C 29.61in /  1002.6hPa ENE 6.0mph /  9.7km/h 14.0mph /  22.5km/h 80% 0.00in /  0mm
01:49 43.4 °F /  6.3 °C 37.6 °F /  3.1 °C 29.60in /  1002.3hPa NE 12.0mph /  19.3km/h 14.0mph /  22.5km/h 80% 0.00in /  0mm
01:54 43.4 °F /  6.3 °C 37.6 °F /  3.1 °C 29.59in /  1001.9hPa NE 6.0mph /  9.7km/h 12.0mph /  19.3km/h 80% 0.00in /  0mm
01:59 43.4 °F /  6.3 °C 37.6 °F /  3.1 °C 29.59in /  1001.9hPa East 8.0mph /  12.9km/h 15.0mph /  24.1km/h 80% 0.00in /  0mm
02:04 43.4 °F /  6.3 °C 37.6 °F /  3.1 °C 29.59in /  1001.9hPa NE 7.0mph /  11.3km/h 13.0mph /  20.9km/h 80% 0.00in /  0mm
02:09 43.4 °F /  6.3 °C 37.6 °F /  3.1 °C 29.59in /  1001.9hPa ENE 7.0mph /  11.3km/h 13.0mph /  20.9km/h 80% 0.00in /  0mm
02:14 43.4 °F /  6.3 °C 37.6 °F /  3.1 °C 29.59in /  1001.9hPa ENE 7.0mph /  11.3km/h 13.0mph /  20.9km/h 80% 0.00in /  0mm
02:19 43.4 °F /  6.3 °C 38.0 °F /  3.3 °C 29.59in /  1001.9hPa ENE 7.0mph /  11.3km/h 13.0mph /  20.9km/h 81% 0.00in /  0mm
02:24 43.4 °F /  6.3 °C 38.0 °F /  3.3 °C 29.58in /  1001.6hPa ENE 6.0mph /  9.7km/h 13.0mph /  20.9km/h 81% 0.00in /  0mm
02:29 43.4 °F /  6.3 °C 38.0 °F /  3.3 °C 29.58in /  1001.6hPa ENE 12.0mph /  19.3km/h 12.0mph /  19.3km/h 81% 0.00in /  0mm
02:34 43.4 °F /  6.3 °C 38.0 °F /  3.3 °C 29.58in /  1001.6hPa NE 3.0mph /  4.8km/h 12.0mph /  19.3km/h 81% 0.00in /  0mm
02:39 43.4 °F /  6.3 °C 38.0 °F /  3.3 °C 29.57in /  1001.2hPa NE 8.0mph /  12.9km/h 12.0mph /  19.3km/h 81% 0.00in /  0mm
02:44 43.5 °F /  6.4 °C 38.1 °F /  3.4 °C 29.57in /  1001.2hPa NE 7.0mph /  11.3km/h 14.0mph /  22.5km/h 81% 0.00in /  0mm
02:49 43.5 °F /  6.4 °C 38.1 °F /  3.4 °C 29.56in /  1000.9hPa NE 6.0mph /  9.7km/h 14.0mph /  22.5km/h 81% 0.00in /  0mm
02:54 43.4 °F /  6.3 °C 38.0 °F /  3.3 °C 29.56in /  1000.9hPa NE 4.0mph /  6.4km/h 13.0mph /  20.9km/h 81% 0.00in /  0mm
02:59 43.5 °F /  6.4 °C 38.1 °F /  3.4 °C 29.55in /  1000.6hPa NE 5.0mph /  8km/h 12.0mph /  19.3km/h 81% 0.00in /  0mm
03:04 43.5 °F /  6.4 °C 38.1 °F /  3.4 °C 29.55in /  1000.6hPa NE 3.0mph /  4.8km/h 13.0mph /  20.9km/h 81% 0.00in /  0mm
03:09 43.5 °F /  6.4 °C 38.1 °F /  3.4 °C 29.54in /  1000.2hPa NNE 5.0mph /  8km/h 10.0mph /  16.1km/h 81% 0.00in /  0mm
03:14 43.5 °F /  6.4 °C 38.1 °F /  3.4 °C 29.53in /  999.9hPa NE 6.0mph /  9.7km/h 12.0mph /  19.3km/h 81% 0.00in /  0mm
03:19 43.5 °F /  6.4 °C 38.1 °F /  3.4 °C 29.53in /  999.9hPa ENE 9.0mph /  14.5km/h 10.0mph /  16.1km/h 81% 0.00in /  0mm
03:24 43.5 °F /  6.4 °C 38.1 °F /  3.4 °C 29.53in /  999.9hPa NNE 4.0mph /  6.4km/h 13.0mph /  20.9km/h 81% 0.00in /  0mm
03:34 43.5 °F /  6.4 °C 38.1 °F /  3.4 °C 29.53in /  999.9hPa NE 8.0mph /  12.9km/h 10.0mph /  16.1km/h 81% 0.00in /  0mm
03:39 43.7 °F /  6.5 °C 38.3 °F /  3.5 °C 29.52in /  999.5hPa NE 5.0mph /  8km/h 11.0mph /  17.7km/h 81% 0.00in /  0mm
03:44 43.7 °F /  6.5 °C 38.3 °F /  3.5 °C 29.52in /  999.5hPa NNE 4.0mph /  6.4km/h 10.0mph /  16.1km/h 81% 0.00in /  0mm
03:49 43.8 °F /  6.6 °C 38.3 °F /  3.5 °C 29.51in /  999.2hPa NE 6.0mph /  9.7km/h 10.0mph /  16.1km/h 81% 0.00in /  0mm
03:54 43.9 °F /  6.6 °C 38.4 °F /  3.6 °C 29.51in /  999.2hPa NE 5.0mph /  8km/h 10.0mph /  16.1km/h 81% 0.00in /  0mm
03:59 44.0 °F /  6.7 °C 38.5 °F /  3.6 °C 29.51in /  999.2hPa NE 5.0mph /  8km/h 10.0mph /  16.1km/h 81% 0.00in /  0mm
04:04 44.1 °F /  6.7 °C 38.6 °F /  3.7 °C 29.51in /  999.2hPa NE 5.0mph /  8km/h 11.0mph /  17.7km/h 81% 0.00in /  0mm
04:09 44.1 °F /  6.7 °C 38.6 °F /  3.7 °C 29.50in /  998.9hPa NE 5.0mph /  8km/h 10.0mph /  16.1km/h 81% 0.00in /  0mm
04:14 44.2 °F /  6.8 °C 38.7 °F /  3.7 °C 29.50in /  998.9hPa ENE 3.0mph /  4.8km/h 8.0mph /  12.9km/h 81% 0.00in /  0mm
04:19 44.2 °F /  6.8 °C 39.1 °F /  3.9 °C 29.50in /  998.9hPa NE 4.0mph /  6.4km/h 8.0mph /  12.9km/h 82% 0.01in /  0.25mm
04:24 44.2 °F /  6.8 °C 39.4 °F /  4.1 °C 29.50in /  998.9hPa ENE 5.0mph /  8km/h 11.0mph /  17.7km/h 83% 0.01in /  0.25mm
04:29 44.2 °F /  6.8 °C 39.7 °F /  4.3 °C 29.49in /  998.5hPa ENE 4.0mph /  6.4km/h 9.0mph /  14.5km/h 84% 0.01in /  0.25mm
04:34 44.3 °F /  6.8 °C 39.8 °F /  4.3 °C 29.49in /  998.5hPa NE 3.0mph /  4.8km/h 9.0mph /  14.5km/h 84% 0.01in /  0.25mm
04:39 44.3 °F /  6.8 °C 40.1 °F /  4.5 °C 29.48in /  998.2hPa NE 2.0mph /  3.2km/h 7.0mph /  11.3km/h 85% 0.01in /  0.25mm
04:44 44.3 °F /  6.8 °C 40.1 °F /  4.5 °C 29.49in /  998.5hPa NE 6.0mph /  9.7km/h 8.0mph /  12.9km/h 85% 0.01in /  0.25mm
04:49 44.4 °F /  6.9 °C 40.2 °F /  4.6 °C 29.48in /  998.2hPa ENE 4.0mph /  6.4km/h 9.0mph /  14.5km/h 85% 0.01in /  0.25mm
04:54 44.6 °F /  7 °C 40.7 °F /  4.8 °C 29.48in /  998.2hPa ENE 4.0mph /  6.4km/h 9.0mph /  14.5km/h 86% 0.02in /  0.51mm
04:59 44.7 °F /  7.1 °C 40.8 °F /  4.9 °C 29.48in /  998.2hPa ENE 3.0mph /  4.8km/h 9.0mph /  14.5km/h 86% 0.03in /  0.76mm
05:04 44.9 °F /  7.2 °C 41.3 °F /  5.2 °C 29.47in /  997.9hPa ENE 3.0mph /  4.8km/h 9.0mph /  14.5km/h 87% 0.04in /  1.02mm
05:09 45.1 °F /  7.3 °C 41.5 °F /  5.3 °C 29.47in /  997.9hPa ENE 3.0mph /  4.8km/h 5.0mph /  8km/h 87% 0.05in /  1.27mm
05:14 45.2 °F /  7.3 °C 41.6 °F /  5.3 °C 29.46in /  997.5hPa ENE 3.0mph /  4.8km/h 7.0mph /  11.3km/h 87% 0.06in /  1.52mm
05:19 45.3 °F /  7.4 °C 42.0 °F /  5.6 °C 29.46in /  997.5hPa ESE 3.0mph /  4.8km/h 8.0mph /  12.9km/h 88% 0.05in /  1.27mm
05:24 45.4 °F /  7.4 °C 42.1 °F /  5.6 °C 29.45in /  997.2hPa ENE 4.0mph /  6.4km/h 8.0mph /  12.9km/h 88% 0.05in /  1.27mm
05:29 45.6 °F /  7.6 °C 42.3 °F /  5.7 °C 29.45in /  997.2hPa East 3.0mph /  4.8km/h 7.0mph /  11.3km/h 88% 0.05in /  1.27mm
05:34 45.8 °F /  7.7 °C 42.4 °F /  5.8 °C 29.45in /  997.2hPa ENE 4.0mph /  6.4km/h 6.0mph /  9.7km/h 88% 0.05in /  1.27mm
05:44 46.1 °F /  7.8 °C 43.0 °F /  6.1 °C 29.44in /  996.8hPa ENE 3.0mph /  4.8km/h 5.0mph /  8km/h 89% 0.05in /  1.27mm
05:49 46.7 °F /  8.2 °C 43.6 °F /  6.4 °C 29.44in /  996.8hPa ENE 3.0mph /  4.8km/h 7.0mph /  11.3km/h 89% 0.05in /  1.27mm
05:54 47.3 °F /  8.5 °C 44.2 °F /  6.8 °C 29.43in /  996.5hPa NE 3.0mph /  4.8km/h 6.0mph /  9.7km/h 89% 0.04in /  1.02mm
05:59 47.6 °F /  8.7 °C 44.5 °F /  6.9 °C 29.45in /  997.2hPa ENE 3.0mph /  4.8km/h 6.0mph /  9.7km/h 89% 0.03in /  0.76mm
06:04 48.1 °F /  8.9 °C 45.0 °F /  7.2 °C 29.44in /  996.8hPa ENE 2.0mph /  3.2km/h 6.0mph /  9.7km/h 89% 0.02in /  0.51mm
06:09 48.7 °F /  9.3 °C 45.6 °F /  7.6 °C 29.44in /  996.8hPa East 2.0mph /  3.2km/h 6.0mph /  9.7km/h 89% 0.01in /  0.25mm
06:14 49.1 °F /  9.5 °C 46.0 °F /  7.8 °C 29.44in /  996.8hPa Calm   5.0mph /  8km/h 89% 0.00in /  0mm
06:19 49.5 °F /  9.7 °C 46.1 °F /  7.8 °C 29.44in /  996.8hPa ESE 1.0mph /  1.6km/h 2.0mph /  3.2km/h 88% 0.00in /  0mm
06:24 50.2 °F /  10.1 °C 46.8 °F /  8.2 °C 29.43in /  996.5hPa Calm   5.0mph /  8km/h 88% 0.00in /  0mm
06:29 50.8 °F /  10.4 °C 47.4 °F /  8.6 °C 29.43in /  996.5hPa ESE 1.0mph /  1.6km/h 5.0mph /  8km/h 88% 0.00in /  0mm
06:34 51.4 °F /  10.8 °C 47.7 °F /  8.7 °C 29.42in /  996.2hPa SE 1.0mph /  1.6km/h 3.0mph /  4.8km/h 87% 0.00in /  0mm
06:39 52.0 °F /  11.1 °C 47.9 °F /  8.8 °C 29.42in /  996.2hPa SE 1.0mph /  1.6km/h 4.0mph /  6.4km/h 86% 0.00in /  0mm
06:44 52.7 °F /  11.5 °C 48.3 °F /  9.1 °C 29.42in /  996.2hPa SSE 2.0mph /  3.2km/h 8.0mph /  12.9km/h 85% 0.00in /  0mm
06:49 53.1 °F /  11.7 °C 48.4 °F /  9.1 °C 29.42in /  996.2hPa SE 5.0mph /  8km/h 7.0mph /  11.3km/h 84% 0.00in /  0mm
06:54 53.5 °F /  11.9 °C 48.5 °F /  9.2 °C 29.42in /  996.2hPa SSE 4.0mph /  6.4km/h 8.0mph /  12.9km/h 83% 0.00in /  0mm
06:59 53.6 °F /  12 °C 48.2 °F /  9 °C 29.42in /  996.2hPa South 2.0mph /  3.2km/h 4.0mph /  6.4km/h 82% 0.00in /  0mm
07:04 53.6 °F /  12 °C 48.2 °F /  9 °C 29.42in /  996.2hPa SSE 2.0mph /  3.2km/h 5.0mph /  8km/h 82% 0.00in /  0mm
07:09 53.7 °F /  12.1 °C 48.3 °F /  9.1 °C 29.42in /  996.2hPa SSE 2.0mph /  3.2km/h 5.0mph /  8km/h 82% 0.00in /  0mm
07:14 53.7 °F /  12.1 °C 48.3 °F /  9.1 °C 29.43in /  996.5hPa SSE 2.0mph /  3.2km/h 6.0mph /  9.7km/h 82% 0.01in /  0.25mm
07:19 53.9 °F /  12.2 °C 48.5 °F /  9.2 °C 29.43in /  996.5hPa South 2.0mph /  3.2km/h 6.0mph /  9.7km/h 82% 0.01in /  0.25mm
07:24 54.0 °F /  12.2 °C 48.3 °F /  9.1 °C 29.43in /  996.5hPa SSE 6.0mph /  9.7km/h 6.0mph /  9.7km/h 81% 0.01in /  0.25mm
07:29 54.1 °F /  12.3 °C 48.4 °F /  9.1 °C 29.43in /  996.5hPa South 3.0mph /  4.8km/h 6.0mph /  9.7km/h 81% 0.01in /  0.25mm
07:34 54.2 °F /  12.3 °C 48.5 °F /  9.2 °C 29.43in /  996.5hPa South 3.0mph /  4.8km/h 7.0mph /  11.3km/h 81% 0.01in /  0.25mm
07:39 54.3 °F /  12.4 °C 48.6 °F /  9.2 °C 29.43in /  996.5hPa South 3.0mph /  4.8km/h 7.0mph /  11.3km/h 81% 0.01in /  0.25mm
07:44 54.3 °F /  12.4 °C 48.6 °F /  9.2 °C 29.42in /  996.2hPa South 3.0mph /  4.8km/h 7.0mph /  11.3km/h 81% 0.01in /  0.25mm
07:49 54.2 °F /  12.3 °C 48.5 °F /  9.2 °C 29.42in /  996.2hPa South 3.0mph /  4.8km/h 7.0mph /  11.3km/h 81% 0.01in /  0.25mm
07:54 54.3 °F /  12.4 °C 48.6 °F /  9.2 °C 29.42in /  996.2hPa SSE 2.0mph /  3.2km/h 5.0mph /  8km/h 81% 0.01in /  0.25mm
07:59 54.3 °F /  12.4 °C 48.6 °F /  9.2 °C 29.42in /  996.2hPa SSE 4.0mph /  6.4km/h 5.0mph /  8km/h 81% 0.01in /  0.25mm
08:04 54.2 °F /  12.3 °C 48.2 °F /  9 °C 29.42in /  996.2hPa South 3.0mph /  4.8km/h 8.0mph /  12.9km/h 80% 0.01in /  0.25mm
08:09 54.2 °F /  12.3 °C 48.2 °F /  9 °C 29.41in /  995.8hPa SSE 4.0mph /  6.4km/h 11.0mph /  17.7km/h 80% 0.01in /  0.25mm
08:14 54.2 °F /  12.3 °C 48.2 °F /  9 °C 29.40in /  995.5hPa SSE 5.0mph /  8km/h 11.0mph /  17.7km/h 80% 0.00in /  0mm
08:19 54.1 °F /  12.3 °C 47.7 °F /  8.7 °C 29.40in /  995.5hPa South 3.0mph /  4.8km/h 9.0mph /  14.5km/h 79% 0.00in /  0mm
08:24 54.1 °F /  12.3 °C 47.7 °F /  8.7 °C 29.40in /  995.5hPa South 8.0mph /  12.9km/h 8.0mph /  12.9km/h 79% 0.00in /  0mm
08:29 53.9 °F /  12.2 °C 47.5 °F /  8.6 °C 29.40in /  995.5hPa SSE 1.0mph /  1.6km/h 9.0mph /  14.5km/h 79% 0.00in /  0mm
08:34 53.9 °F /  12.2 °C 47.5 °F /  8.6 °C 29.40in /  995.5hPa South 1.0mph /  1.6km/h 3.0mph /  4.8km/h 79% 0.00in /  0mm
08:39 53.9 °F /  12.2 °C 47.5 °F /  8.6 °C 29.40in /  995.5hPa South 1.0mph /  1.6km/h 4.0mph /  6.4km/h 79% 0.00in /  0mm
08:44 53.8 °F /  12.1 °C 47.4 °F /  8.6 °C 29.40in /  995.5hPa South 1.0mph /  1.6km/h 4.0mph /  6.4km/h 79% 0.00in /  0mm
08:49 53.8 °F /  12.1 °C 47.4 °F /  8.6 °C 29.40in /  995.5hPa South 2.0mph /  3.2km/h 6.0mph /  9.7km/h 79% 0.00in /  0mm
08:54 53.8 °F /  12.1 °C 47.4 °F /  8.6 °C 29.40in /  995.5hPa Calm   4.0mph /  6.4km/h 79% 0.00in /  0mm
08:59 53.8 °F /  12.1 °C 47.4 °F /  8.6 °C 29.40in /  995.5hPa SSE 2.0mph /  3.2km/h 4.0mph /  6.4km/h 79% 0.00in /  0mm
09:09 53.6 °F /  12 °C 47.6 °F /  8.7 °C 29.39in /  995.1hPa Calm   4.0mph /  6.4km/h 80% 0.00in /  0mm
09:14 53.3 °F /  11.8 °C 47.6 °F /  8.7 °C 29.39in /  995.1hPa SSE 2.0mph /  3.2km/h 3.0mph /  4.8km/h 81% 0.01in /  0.25mm
09:19 53.1 °F /  11.7 °C 47.7 °F /  8.7 °C 29.38in /  994.8hPa ESE 1.0mph /  1.6km/h 5.0mph /  8km/h 82% 0.01in /  0.25mm
09:24 52.7 °F /  11.5 °C 47.7 °F /  8.7 °C 29.38in /  994.8hPa Calm   3.0mph /  4.8km/h 83% 0.02in /  0.51mm
09:29 52.4 °F /  11.3 °C 47.7 °F /  8.7 °C 29.38in /  994.8hPa Calm   4.0mph /  6.4km/h 84% 0.02in /  0.51mm
09:34 52.2 °F /  11.2 °C 47.8 °F /  8.8 °C 29.38in /  994.8hPa SE 1.0mph /  1.6km/h 4.0mph /  6.4km/h 85% 0.03in /  0.76mm
09:39 52.1 °F /  11.2 °C 48.0 °F /  8.9 °C 29.38in /  994.8hPa SSE 1.0mph /  1.6km/h 2.0mph /  3.2km/h 86% 0.03in /  0.76mm
09:44 52.0 °F /  11.1 °C 47.9 °F /  8.8 °C 29.38in /  994.8hPa Calm   3.0mph /  4.8km/h 86% 0.04in /  1.02mm
09:49 51.8 °F /  11 °C 48.1 °F /  8.9 °C 29.38in /  994.8hPa ESE 1.0mph /  1.6km/h 5.0mph /  8km/h 87% 0.06in /  1.52mm
09:54 51.6 °F /  10.9 °C 47.9 °F /  8.8 °C 29.38in /  994.8hPa ESE 2.0mph /  3.2km/h 5.0mph /  8km/h 87% 0.07in /  1.78mm
09:59 51.5 °F /  10.8 °C 47.8 °F /  8.8 °C 29.38in /  994.8hPa SE 3.0mph /  4.8km/h 5.0mph /  8km/h 87% 0.08in /  2.03mm
10:04 51.3 °F /  10.7 °C 47.9 °F /  8.8 °C 29.38in /  994.8hPa SSE 3.0mph /  4.8km/h 6.0mph /  9.7km/h 88% 0.09in /  2.29mm
10:09 51.2 °F /  10.7 °C 47.8 °F /  8.8 °C 29.38in /  994.8hPa SSE 3.0mph /  4.8km/h 8.0mph /  12.9km/h 88% 0.11in /  2.79mm
10:14 51.0 °F /  10.6 °C 47.6 °F /  8.7 °C 29.38in /  994.8hPa Calm   7.0mph /  11.3km/h 88% 0.11in /  2.79mm
10:19 50.8 °F /  10.4 °C 47.7 °F /  8.7 °C 29.38in /  994.8hPa SSE 4.0mph /  6.4km/h 8.0mph /  12.9km/h 89% 0.12in /  3.05mm
10:24 50.8 °F /  10.4 °C 47.7 °F /  8.7 °C 29.38in /  994.8hPa SE 3.0mph /  4.8km/h 5.0mph /  8km/h 89% 0.13in /  3.3mm
10:29 50.6 °F /  10.3 °C 47.5 °F /  8.6 °C 29.37in /  994.5hPa SE 3.0mph /  4.8km/h 6.0mph /  9.7km/h 89% 0.15in /  3.81mm
10:34 50.6 °F /  10.3 °C 47.8 °F /  8.8 °C 29.37in /  994.5hPa SE 1.0mph /  1.6km/h 6.0mph /  9.7km/h 90% 0.15in /  3.81mm
10:39 50.5 °F /  10.3 °C 47.7 °F /  8.7 °C 29.37in /  994.5hPa SE 2.0mph /  3.2km/h 7.0mph /  11.3km/h 90% 0.16in /  4.06mm
10:44 50.4 °F /  10.2 °C 47.6 °F /  8.7 °C 29.37in /  994.5hPa ESE 3.0mph /  4.8km/h 6.0mph /  9.7km/h 90% 0.16in /  4.06mm
10:49 50.3 °F /  10.2 °C 47.5 °F /  8.6 °C 29.37in /  994.5hPa ESE 3.0mph /  4.8km/h 6.0mph /  9.7km/h 90% 0.16in /  4.06mm
10:54 50.2 °F /  10.1 °C 47.4 °F /  8.6 °C 29.37in /  994.5hPa ESE 2.0mph /  3.2km/h 8.0mph /  12.9km/h 90% 0.16in /  4.06mm
10:59 50.1 °F /  10.1 °C 47.3 °F /  8.5 °C 29.37in /  994.5hPa ESE 3.0mph /  4.8km/h 8.0mph /  12.9km/h 90% 0.18in /  4.57mm
11:04 49.9 °F /  9.9 °C 47.1 °F /  8.4 °C 29.37in /  994.5hPa East 3.0mph /  4.8km/h 8.0mph /  12.9km/h 90% 0.20in /  5.08mm
11:09 49.8 °F /  9.9 °C 47.0 °F /  8.3 °C 29.38in /  994.8hPa East 2.0mph /  3.2km/h 6.0mph /  9.7km/h 90% 0.21in /  5.33mm
11:14 49.7 °F /  9.8 °C 47.2 °F /  8.4 °C 29.37in /  994.5hPa ENE 3.0mph /  4.8km/h 3.0mph /  4.8km/h 91% 0.25in /  6.35mm
11:19 49.6 °F /  9.8 °C 47.1 °F /  8.4 °C 29.37in /  994.5hPa ENE 2.0mph /  3.2km/h 6.0mph /  9.7km/h 91% 0.26in /  6.6mm
11:24 49.6 °F /  9.8 °C 47.1 °F /  8.4 °C 29.37in /  994.5hPa Calm   5.0mph /  8km/h 91% 0.28in /  7.11mm
11:29 49.6 °F /  9.8 °C 47.1 °F /  8.4 °C 29.37in /  994.5hPa NE 1.0mph /  1.6km/h 4.0mph /  6.4km/h 91% 0.28in /  7.11mm
11:34 49.6 °F /  9.8 °C 47.1 °F /  8.4 °C 29.37in /  994.5hPa Calm   3.0mph /  4.8km/h 91% 0.29in /  7.37mm
11:39 49.6 °F /  9.8 °C 47.1 °F /  8.4 °C 29.37in /  994.5hPa NE 2.0mph /  3.2km/h 3.0mph /  4.8km/h 91% 0.28in /  7.11mm
11:44 49.6 °F /  9.8 °C 47.1 °F /  8.4 °C 29.36in /  994.1hPa NE 1.0mph /  1.6km/h 4.0mph /  6.4km/h 91% 0.30in /  7.62mm
11:49 49.7 °F /  9.8 °C 47.2 °F /  8.4 °C 29.36in /  994.1hPa NE 2.0mph /  3.2km/h 4.0mph /  6.4km/h 91% 0.29in /  7.37mm
11:54 49.7 °F /  9.8 °C 47.2 °F /  8.4 °C 29.35in /  993.8hPa NE 2.0mph /  3.2km/h 5.0mph /  8km/h 91% 0.31in /  7.87mm
11:59 49.8 °F /  9.9 °C 47.6 °F /  8.7 °C 29.35in /  993.8hPa ENE 2.0mph /  3.2km/h 5.0mph /  8km/h 92% 0.29in /  7.37mm
12:04 49.9 °F /  9.9 °C 47.7 °F /  8.7 °C 29.35in /  993.8hPa ENE 2.0mph /  3.2km/h 5.0mph /  8km/h 92% 0.27in /  6.86mm
12:09 49.9 °F /  9.9 °C 47.7 °F /  8.7 °C 29.35in /  993.8hPa ENE 2.0mph /  3.2km/h 5.0mph /  8km/h 92% 0.25in /  6.35mm
12:14 49.9 °F /  9.9 °C 47.7 °F /  8.7 °C 29.35in /  993.8hPa East 2.0mph /  3.2km/h 5.0mph /  8km/h 92% 0.21in /  5.33mm
12:19 50.0 °F /  10 °C 47.8 °F /  8.8 °C 29.35in /  993.8hPa East 2.0mph /  3.2km/h 5.0mph /  8km/h 92% 0.19in /  4.83mm
12:24 49.9 °F /  9.9 °C 47.7 °F /  8.7 °C 29.34in /  993.5hPa NE 4.0mph /  6.4km/h 8.0mph /  12.9km/h 92% 0.17in /  4.32mm
12:29 50.1 °F /  10.1 °C 47.9 °F /  8.8 °C 29.34in /  993.5hPa ENE 3.0mph /  4.8km/h 5.0mph /  8km/h 92% 0.16in /  4.06mm
12:34 50.3 °F /  10.2 °C 48.1 °F /  8.9 °C 29.34in /  993.5hPa ENE 4.0mph /  6.4km/h 4.0mph /  6.4km/h 92% 0.15in /  3.81mm
12:39 50.5 °F /  10.3 °C 48.3 °F /  9.1 °C 29.33in /  993.1hPa ENE 3.0mph /  4.8km/h 5.0mph /  8km/h 92% 0.15in /  3.81mm
12:44 50.5 °F /  10.3 °C 48.3 °F /  9.1 °C 29.34in /  993.5hPa NE 1.0mph /  1.6km/h 5.0mph /  8km/h 92% 0.12in /  3.05mm
12:49 50.6 °F /  10.3 °C 48.4 °F /  9.1 °C 29.33in /  993.1hPa NE 1.0mph /  1.6km/h 3.0mph /  4.8km/h 92% 0.12in /  3.05mm
12:54 50.8 °F /  10.4 °C 48.6 °F /  9.2 °C 29.33in /  993.1hPa ENE 3.0mph /  4.8km/h 4.0mph /  6.4km/h 92% 0.10in /  2.54mm
12:59 50.8 °F /  10.4 °C 48.6 °F /  9.2 °C 29.33in /  993.1hPa East 8.0mph /  12.9km/h 8.0mph /  12.9km/h 92% 0.09in /  2.29mm
13:04 50.8 °F /  10.4 °C 48.6 °F /  9.2 °C 29.32in /  992.8hPa East 3.0mph /  4.8km/h 8.0mph /  12.9km/h 92% 0.09in /  2.29mm
13:09 51.0 °F /  10.6 °C 48.8 °F /  9.3 °C 29.32in /  992.8hPa East 3.0mph /  4.8km/h 8.0mph /  12.9km/h 92% 0.08in /  2.03mm
13:14 51.2 °F /  10.7 °C 49.0 °F /  9.4 °C 29.32in /  992.8hPa East 2.0mph /  3.2km/h 6.0mph /  9.7km/h 92% 0.07in /  1.78mm
13:19 51.4 °F /  10.8 °C 49.2 °F /  9.6 °C 29.32in /  992.8hPa ENE 2.0mph /  3.2km/h 5.0mph /  8km/h 92% 0.06in /  1.52mm
13:24 51.4 °F /  10.8 °C 49.2 °F /  9.6 °C 29.32in /  992.8hPa East 2.0mph /  3.2km/h 5.0mph /  8km/h 92% 0.05in /  1.27mm
13:29 51.4 °F /  10.8 °C 48.9 °F /  9.4 °C 29.31in /  992.4hPa East 2.0mph /  3.2km/h 6.0mph /  9.7km/h 91% 0.05in /  1.27mm
13:34 51.4 °F /  10.8 °C 49.2 °F /  9.6 °C 29.31in /  992.4hPa NE 3.0mph /  4.8km/h 4.0mph /  6.4km/h 92% 0.04in /  1.02mm
13:39 51.6 °F /  10.9 °C 49.1 °F /  9.5 °C 29.31in /  992.4hPa East 1.0mph /  1.6km/h 6.0mph /  9.7km/h 91% 0.04in /  1.02mm
13:44 51.5 °F /  10.8 °C 49.0 °F /  9.4 °C 29.30in /  992.1hPa ENE 3.0mph /  4.8km/h 6.0mph /  9.7km/h 91% 0.04in /  1.02mm
13:49 51.5 °F /  10.8 °C 49.0 °F /  9.4 °C 29.30in /  992.1hPa ESE 2.0mph /  3.2km/h 5.0mph /  8km/h 91% 0.03in /  0.76mm
13:54 51.5 °F /  10.8 °C 49.0 °F /  9.4 °C 29.29in /  991.8hPa East 5.0mph /  8km/h 5.0mph /  8km/h 91% 0.03in /  0.76mm
13:59 51.7 °F /  10.9 °C 49.2 °F /  9.6 °C 29.29in /  991.8hPa East 1.0mph /  1.6km/h 5.0mph /  8km/h 91% 0.03in /  0.76mm
14:04 51.9 °F /  11.1 °C 49.4 °F /  9.7 °C 29.29in /  991.8hPa East 1.0mph /  1.6km/h 5.0mph /  8km/h 91% 0.02in /  0.51mm
14:09 52.0 °F /  11.1 °C 49.5 °F /  9.7 °C 29.28in /  991.4hPa East 2.0mph /  3.2km/h 5.0mph /  8km/h 91% 0.02in /  0.51mm
14:14 51.9 °F /  11.1 °C 49.4 °F /  9.7 °C 29.28in /  991.4hPa East 2.0mph /  3.2km/h 6.0mph /  9.7km/h 91% 0.02in /  0.51mm
14:19 51.8 °F /  11 °C 49.3 °F /  9.6 °C 29.27in /  991.1hPa East 3.0mph /  4.8km/h 8.0mph /  12.9km/h 91% 0.02in /  0.51mm
14:24 51.8 °F /  11 °C 49.3 °F /  9.6 °C 29.27in /  991.1hPa ENE 3.0mph /  4.8km/h 8.0mph /  12.9km/h 91% 0.02in /  0.51mm
14:29 52.1 °F /  11.2 °C 49.6 °F /  9.8 °C 29.27in /  991.1hPa ENE 3.0mph /  4.8km/h 5.0mph /  8km/h 91% 0.01in /  0.25mm
14:34 52.3 °F /  11.3 °C 49.8 °F /  9.9 °C 29.27in /  991.1hPa ENE 2.0mph /  3.2km/h 5.0mph /  8km/h 91% 0.01in /  0.25mm
14:39 52.2 °F /  11.2 °C 49.7 °F /  9.8 °C 29.27in /  991.1hPa ENE 3.0mph /  4.8km/h 6.0mph /  9.7km/h 91% 0.01in /  0.25mm
14:44 52.2 °F /  11.2 °C 49.7 °F /  9.8 °C 29.26in /  990.7hPa Calm   6.0mph /  9.7km/h 91% 0.02in /  0.51mm
14:49 52.0 °F /  11.1 °C 49.5 °F /  9.7 °C 29.26in /  990.7hPa ENE 1.0mph /  1.6km/h 3.0mph /  4.8km/h 91% 0.02in /  0.51mm
14:54 51.8 °F /  11 °C 49.0 °F /  9.4 °C 29.26in /  990.7hPa Calm   4.0mph /  6.4km/h 90% 0.01in /  0.25mm
14:59 51.8 °F /  11 °C 49.0 °F /  9.4 °C 29.26in /  990.7hPa East 2.0mph /  3.2km/h 5.0mph /  8km/h 90% 0.01in /  0.25mm
15:04 51.6 °F /  10.9 °C 49.1 °F /  9.5 °C 29.26in /  990.7hPa ENE 1.0mph /  1.6km/h 6.0mph /  9.7km/h 91% 0.01in /  0.25mm
15:09 51.7 °F /  10.9 °C 49.2 °F /  9.6 °C 29.26in /  990.7hPa SE 4.0mph /  6.4km/h 6.0mph /  9.7km/h 91% 0.01in /  0.25mm
15:14 51.7 °F /  10.9 °C 49.2 °F /  9.6 °C 29.25in /  990.4hPa East 2.0mph /  3.2km/h 6.0mph /  9.7km/h 91% 0.01in /  0.25mm
15:19 51.7 °F /  10.9 °C 49.2 °F /  9.6 °C 29.25in /  990.4hPa East 2.0mph /  3.2km/h 6.0mph /  9.7km/h 91% 0.01in /  0.25mm
15:24 51.5 °F /  10.8 °C 49.0 °F /  9.4 °C 29.25in /  990.4hPa East 1.0mph /  1.6km/h 5.0mph /  8km/h 91% 0.01in /  0.25mm
15:29 51.7 °F /  10.9 °C 49.2 °F /  9.6 °C 29.24in /  990.1hPa ENE 1.0mph /  1.6km/h 3.0mph /  4.8km/h 91% 0.02in /  0.51mm
15:34 51.7 °F /  10.9 °C 49.2 °F /  9.6 °C 29.23in /  989.7hPa ENE 2.0mph /  3.2km/h 6.0mph /  9.7km/h 91% 0.02in /  0.51mm
15:39 51.8 °F /  11 °C 49.3 °F /  9.6 °C 29.23in /  989.7hPa NE 4.0mph /  6.4km/h 4.0mph /  6.4km/h 91% 0.02in /  0.51mm
15:44 51.9 °F /  11.1 °C 49.4 °F /  9.7 °C 29.23in /  989.7hPa NE 2.0mph /  3.2km/h 5.0mph /  8km/h 91% 0.01in /  0.25mm
15:49 52.0 °F /  11.1 °C 49.5 °F /  9.7 °C 29.22in /  989.4hPa ENE 1.0mph /  1.6km/h 6.0mph /  9.7km/h 91% 0.01in /  0.25mm
15:54 52.1 °F /  11.2 °C 49.6 °F /  9.8 °C 29.22in /  989.4hPa NE 2.0mph /  3.2km/h 5.0mph /  8km/h 91% 0.01in /  0.25mm
15:59 52.1 °F /  11.2 °C 49.6 °F /  9.8 °C 29.21in /  989.1hPa NE 2.0mph /  3.2km/h 6.0mph /  9.7km/h 91% 0.01in /  0.25mm
16:04 52.3 °F /  11.3 °C 49.8 °F /  9.9 °C 29.21in /  989.1hPa NE 1.0mph /  1.6km/h 6.0mph /  9.7km/h 91% 0.01in /  0.25mm
16:09 52.4 °F /  11.3 °C 49.8 °F /  9.9 °C 29.21in /  989.1hPa East 3.0mph /  4.8km/h 6.0mph /  9.7km/h 91% 0.01in /  0.25mm
16:14 52.2 °F /  11.2 °C 49.4 °F /  9.7 °C 29.21in /  989.1hPa ENE 2.0mph /  3.2km/h 5.0mph /  8km/h 90% 0.01in /  0.25mm
16:19 51.9 °F /  11.1 °C 49.1 °F /  9.5 °C 29.21in /  989.1hPa NE 2.0mph /  3.2km/h 6.0mph /  9.7km/h 90% 0.01in /  0.25mm
16:24 51.6 °F /  10.9 °C 49.1 °F /  9.5 °C 29.21in /  989.1hPa NNW 3.0mph /  4.8km/h 6.0mph /  9.7km/h 91% 0.01in /  0.25mm
16:29 51.5 °F /  10.8 °C 49.0 °F /  9.4 °C 29.20in /  988.7hPa North 3.0mph /  4.8km/h 6.0mph /  9.7km/h 91% 0.00in /  0mm
16:34 51.7 °F /  10.9 °C 49.2 °F /  9.6 °C 29.20in /  988.7hPa NNE 3.0mph /  4.8km/h 6.0mph /  9.7km/h 91% 0.01in /  0.25mm
16:39 51.6 °F /  10.9 °C 49.1 °F /  9.5 °C 29.20in /  988.7hPa NNE 2.0mph /  3.2km/h 5.0mph /  8km/h 91% 0.01in /  0.25mm
16:44 51.6 °F /  10.9 °C 49.1 °F /  9.5 °C 29.19in /  988.4hPa North 3.0mph /  4.8km/h 4.0mph /  6.4km/h 91% 0.01in /  0.25mm
16:49 51.5 °F /  10.8 °C 49.0 °F /  9.4 °C 29.19in /  988.4hPa North 3.0mph /  4.8km/h 6.0mph /  9.7km/h 91% 0.01in /  0.25mm
16:54 51.4 °F /  10.8 °C 48.9 °F /  9.4 °C 29.20in /  988.7hPa North 3.0mph /  4.8km/h 7.0mph /  11.3km/h 91% 0.01in /  0.25mm
16:59 51.2 °F /  10.7 °C 49.0 °F /  9.4 °C 29.20in /  988.7hPa NNE 3.0mph /  4.8km/h 7.0mph /  11.3km/h 92% 0.01in /  0.25mm
17:04 51.1 °F /  10.6 °C 48.9 °F /  9.4 °C 29.19in /  988.4hPa NNE 3.0mph /  4.8km/h 5.0mph /  8km/h 92% 0.01in /  0.25mm
17:09 51.0 °F /  10.6 °C 48.8 °F /  9.3 °C 29.19in /  988.4hPa North 3.0mph /  4.8km/h 8.0mph /  12.9km/h 92% 0.01in /  0.25mm
17:14 50.8 °F /  10.4 °C 48.6 °F /  9.2 °C 29.19in /  988.4hPa NE 5.0mph /  8km/h 6.0mph /  9.7km/h 92% 0.01in /  0.25mm
17:19 50.5 °F /  10.3 °C 48.3 °F /  9.1 °C 29.19in /  988.4hPa North 5.0mph /  8km/h 6.0mph /  9.7km/h 92% 0.01in /  0.25mm
17:24 49.9 °F /  9.9 °C 47.4 °F /  8.6 °C 29.19in /  988.4hPa North 4.0mph /  6.4km/h 10.0mph /  16.1km/h 91% 0.02in /  0.51mm
17:29 49.2 °F /  9.6 °C 46.7 °F /  8.2 °C 29.19in /  988.4hPa North 3.0mph /  4.8km/h 8.0mph /  12.9km/h 91% 0.03in /  0.76mm
17:34 48.8 °F /  9.3 °C 46.6 °F /  8.1 °C 29.19in /  988.4hPa North 5.0mph /  8km/h 9.0mph /  14.5km/h 92% 0.03in /  0.76mm
17:39 48.2 °F /  9 °C 45.7 °F /  7.6 °C 29.20in /  988.7hPa NNW 12.0mph /  19.3km/h 13.0mph /  20.9km/h 91% 0.04in /  1.02mm
17:44 47.2 °F /  8.4 °C 44.7 °F /  7.1 °C 29.20in /  988.7hPa North 4.0mph /  6.4km/h 12.0mph /  19.3km/h 91% 0.05in /  1.27mm
17:49 46.5 °F /  8.1 °C 44.0 °F /  6.7 °C 29.20in /  988.7hPa NNW 7.0mph /  11.3km/h 13.0mph /  20.9km/h 91% 0.05in /  1.27mm
17:54 45.8 °F /  7.7 °C 43.3 °F /  6.3 °C 29.20in /  988.7hPa North 5.0mph /  8km/h 13.0mph /  20.9km/h 91% 0.06in /  1.52mm
17:59 44.7 °F /  7.1 °C 42.2 °F /  5.7 °C 29.21in /  989.1hPa NNW 5.0mph /  8km/h 13.0mph /  20.9km/h 91% 0.07in /  1.78mm
18:09 43.4 °F /  6.3 °C 40.9 °F /  4.9 °C 29.21in /  989.1hPa North 7.0mph /  11.3km/h 14.0mph /  22.5km/h 91% 0.08in /  2.03mm
18:14 42.8 °F /  6 °C 40.4 °F /  4.7 °C 29.21in /  989.1hPa North 7.0mph /  11.3km/h 14.0mph /  22.5km/h 91% 0.09in /  2.29mm
18:19 42.3 °F /  5.7 °C 39.9 °F /  4.4 °C 29.22in /  989.4hPa North 7.0mph /  11.3km/h 15.0mph /  24.1km/h 91% 0.09in /  2.29mm
18:24 42.0 °F /  5.6 °C 39.6 °F /  4.2 °C 29.22in /  989.4hPa North 2.0mph /  3.2km/h 11.0mph /  17.7km/h 91% 0.09in /  2.29mm
18:29 41.9 °F /  5.5 °C 39.5 °F /  4.2 °C 29.22in /  989.4hPa North 6.0mph /  9.7km/h 11.0mph /  17.7km/h 91% 0.09in /  2.29mm
18:34 41.7 °F /  5.4 °C 39.3 °F /  4.1 °C 29.22in /  989.4hPa NNE 5.0mph /  8km/h 9.0mph /  14.5km/h 91% 0.08in /  2.03mm
18:39 41.5 °F /  5.3 °C 39.1 °F /  3.9 °C 29.22in /  989.4hPa NNE 6.0mph /  9.7km/h 12.0mph /  19.3km/h 91% 0.08in /  2.03mm
18:44 41.4 °F /  5.2 °C 39.0 °F /  3.9 °C 29.22in /  989.4hPa North 4.0mph /  6.4km/h 11.0mph /  17.7km/h 91% 0.08in /  2.03mm
18:49 41.3 °F /  5.2 °C 38.9 °F /  3.8 °C 29.23in /  989.7hPa North 4.0mph /  6.4km/h 13.0mph /  20.9km/h 91% 0.08in /  2.03mm
18:54 41.2 °F /  5.1 °C 38.8 °F /  3.8 °C 29.23in /  989.7hPa NE 6.0mph /  9.7km/h 12.0mph /  19.3km/h 91% 0.08in /  2.03mm
18:59 41.1 °F /  5.1 °C 38.7 °F /  3.7 °C 29.23in /  989.7hPa North 8.0mph /  12.9km/h 16.0mph /  25.7km/h 91% 0.08in /  2.03mm
19:04 41.1 °F /  5.1 °C 38.7 °F /  3.7 °C 29.23in /  989.7hPa North 6.0mph /  9.7km/h 16.0mph /  25.7km/h 91% 0.08in /  2.03mm
19:09 41.0 °F /  5 °C 38.9 °F /  3.8 °C 29.23in /  989.7hPa North 7.0mph /  11.3km/h 14.0mph /  22.5km/h 92% 0.09in /  2.29mm
19:14 41.0 °F /  5 °C 38.9 °F /  3.8 °C 29.23in /  989.7hPa North 6.0mph /  9.7km/h 13.0mph /  20.9km/h 92% 0.08in /  2.03mm
19:19 41.1 °F /  5.1 °C 39.0 °F /  3.9 °C 29.23in /  989.7hPa NNE 6.0mph /  9.7km/h 10.0mph /  16.1km/h 92% 0.09in /  2.29mm
19:24 41.2 °F /  5.1 °C 39.1 °F /  3.9 °C 29.23in /  989.7hPa NNE 4.0mph /  6.4km/h 10.0mph /  16.1km/h 92% 0.09in /  2.29mm
19:29 41.2 °F /  5.1 °C 39.1 °F /  3.9 °C 29.23in /  989.7hPa NE 5.0mph /  8km/h 9.0mph /  14.5km/h 92% 0.09in /  2.29mm
19:34 41.3 °F /  5.2 °C 39.2 °F /  4 °C 29.23in /  989.7hPa North 5.0mph /  8km/h 11.0mph /  17.7km/h 92% 0.09in /  2.29mm
19:39 41.2 °F /  5.1 °C 39.1 °F /  3.9 °C 29.23in /  989.7hPa North 5.0mph /  8km/h 12.0mph /  19.3km/h 92% 0.09in /  2.29mm
19:44 41.1 °F /  5.1 °C 39.0 °F /  3.9 °C 29.23in /  989.7hPa North 5.0mph /  8km/h 12.0mph /  19.3km/h 92% 0.08in /  2.03mm
19:49 41.0 °F /  5 °C 38.9 °F /  3.8 °C 29.23in /  989.7hPa North 6.0mph /  9.7km/h 14.0mph /  22.5km/h 92% 0.09in /  2.29mm
19:54 40.9 °F /  4.9 °C 38.8 °F /  3.8 °C 29.23in /  989.7hPa NW 11.0mph /  17.7km/h 13.0mph /  20.9km/h 92% 0.09in /  2.29mm
19:59 40.7 °F /  4.8 °C 38.3 °F /  3.5 °C 29.23in /  989.7hPa NNE 6.0mph /  9.7km/h 16.0mph /  25.7km/h 91% 0.08in /  2.03mm
20:09 40.5 °F /  4.7 °C 38.1 °F /  3.4 °C 29.24in /  990.1hPa North 4.0mph /  6.4km/h 12.0mph /  19.3km/h 91% 0.08in /  2.03mm
20:14 40.4 °F /  4.7 °C 38.3 °F /  3.5 °C 29.24in /  990.1hPa NNW 10.0mph /  16.1km/h 13.0mph /  20.9km/h 92% 0.08in /  2.03mm
20:19 40.1 °F /  4.5 °C 37.7 °F /  3.2 °C 29.24in /  990.1hPa NNE 6.0mph /  9.7km/h 12.0mph /  19.3km/h 91% 0.08in /  2.03mm
20:24 40.0 °F /  4.4 °C 37.6 °F /  3.1 °C 29.25in /  990.4hPa NNE 8.0mph /  12.9km/h 13.0mph /  20.9km/h 91% 0.08in /  2.03mm
20:29 39.8 °F /  4.3 °C 37.4 °F /  3 °C 29.25in /  990.4hPa North 4.0mph /  6.4km/h 10.0mph /  16.1km/h 91% 0.08in /  2.03mm
20:34 39.6 °F /  4.2 °C 37.2 °F /  2.9 °C 29.25in /  990.4hPa North 4.0mph /  6.4km/h 13.0mph /  20.9km/h 91% 0.09in /  2.29mm
20:39 39.4 °F /  4.1 °C 37.0 °F /  2.8 °C 29.26in /  990.7hPa North 6.0mph /  9.7km/h 15.0mph /  24.1km/h 91% 0.09in /  2.29mm
20:44 39.1 °F /  3.9 °C 36.7 °F /  2.6 °C 29.26in /  990.7hPa North 7.0mph /  11.3km/h 15.0mph /  24.1km/h 91% 0.10in /  2.54mm
20:49 38.9 °F /  3.8 °C 36.5 °F /  2.5 °C 29.26in /  990.7hPa North 7.0mph /  11.3km/h 14.0mph /  22.5km/h 91% 0.09in /  2.29mm
20:54 38.6 °F /  3.7 °C 36.2 °F /  2.3 °C 29.27in /  991.1hPa North 7.0mph /  11.3km/h 14.0mph /  22.5km/h 91% 0.09in /  2.29mm
20:59 38.4 °F /  3.6 °C 36.0 °F /  2.2 °C 29.27in /  991.1hPa North 6.0mph /  9.7km/h 19.0mph /  30.6km/h 91% 0.10in /  2.54mm
21:04 38.3 °F /  3.5 °C 35.9 °F /  2.2 °C 29.28in /  991.4hPa NW 5.0mph /  8km/h 10.0mph /  16.1km/h 91% 0.10in /  2.54mm
21:09 38.1 °F /  3.4 °C 35.4 °F /  1.9 °C 29.28in /  991.4hPa NNW 9.0mph /  14.5km/h 13.0mph /  20.9km/h 90% 0.10in /  2.54mm
21:14 37.9 °F /  3.3 °C 35.5 °F /  1.9 °C 29.28in /  991.4hPa North 6.0mph /  9.7km/h 13.0mph /  20.9km/h 91% 0.12in /  3.05mm
21:19 37.9 °F /  3.3 °C 35.5 °F /  1.9 °C 29.29in /  991.8hPa North 6.0mph /  9.7km/h 12.0mph /  19.3km/h 91% 0.12in /  3.05mm
21:24 37.8 °F /  3.2 °C 35.4 °F /  1.9 °C 29.29in /  991.8hPa North 6.0mph /  9.7km/h 12.0mph /  19.3km/h 91% 0.12in /  3.05mm
21:29 37.7 °F /  3.2 °C 35.3 °F /  1.8 °C 29.29in /  991.8hPa North 7.0mph /  11.3km/h 12.0mph /  19.3km/h 91% 0.12in /  3.05mm
21:34 37.5 °F /  3.1 °C 34.8 °F /  1.6 °C 29.29in /  991.8hPa NNW 4.0mph /  6.4km/h 13.0mph /  20.9km/h 90% 0.12in /  3.05mm
21:39 37.3 °F /  2.9 °C 34.6 °F /  1.4 °C 29.30in /  992.1hPa NW 4.0mph /  6.4km/h 12.0mph /  19.3km/h 90% 0.12in /  3.05mm
21:44 36.9 °F /  2.7 °C 34.2 °F /  1.2 °C 29.30in /  992.1hPa NNE 6.0mph /  9.7km/h 15.0mph /  24.1km/h 90% 0.12in /  3.05mm
21:49 36.6 °F /  2.6 °C 33.9 °F /  1.1 °C 29.30in /  992.1hPa NNW 5.0mph /  8km/h 15.0mph /  24.1km/h 90% 0.13in /  3.3mm
21:54 36.1 °F /  2.3 °C 33.5 °F /  0.8 °C 29.31in /  992.4hPa NNW 6.0mph /  9.7km/h 12.0mph /  19.3km/h 90% 0.13in /  3.3mm
21:59 35.8 °F /  2.1 °C 33.2 °F /  0.7 °C 29.31in /  992.4hPa NNW 6.0mph /  9.7km/h 12.0mph /  19.3km/h 90% 0.13in /  3.3mm
22:04 35.4 °F /  1.9 °C 32.8 °F /  0.4 °C 29.31in /  992.4hPa NNW 5.0mph /  8km/h 11.0mph /  17.7km/h 90% 0.13in /  3.3mm
22:09 35.1 °F /  1.7 °C 32.5 °F /  0.3 °C 29.31in /  992.4hPa NNW 5.0mph /  8km/h 11.0mph /  17.7km/h 90% 0.13in /  3.3mm
22:14 34.6 °F /  1.4 °C 32.0 °F /  0 °C 29.32in /  992.8hPa NW 3.0mph /  4.8km/h 7.0mph /  11.3km/h 90% 0.11in /  2.79mm
22:19 34.1 °F /  1.2 °C 31.7 °F /  -0.2 °C 29.32in /  992.8hPa NW 4.0mph /  6.4km/h 8.0mph /  12.9km/h 91% 0.11in /  2.79mm
22:24 33.9 °F /  1.1 °C 31.6 °F /  -0.2 °C 29.32in /  992.8hPa WNW 2.0mph /  3.2km/h 10.0mph /  16.1km/h 91% 0.10in /  2.54mm
22:34 33.4 °F /  0.8 °C 31.1 °F /  -0.5 °C 29.32in /  992.8hPa NNW 2.0mph /  3.2km/h 6.0mph /  9.7km/h 91% 0.08in /  2.03mm
22:39 33.3 °F /  0.7 °C 31.0 °F /  -0.6 °C 29.32in /  992.8hPa North 2.0mph /  3.2km/h 6.0mph /  9.7km/h 91% 0.07in /  1.78mm
22:44 33.2 °F /  0.7 °C 30.9 °F /  -0.6 °C 29.33in /  993.1hPa NNW 4.0mph /  6.4km/h 7.0mph /  11.3km/h 91% 0.06in /  1.52mm
22:49 33.1 °F /  0.6 °C 31.0 °F /  -0.6 °C 29.33in /  993.1hPa NW 3.0mph /  4.8km/h 7.0mph /  11.3km/h 92% 0.05in /  1.27mm
22:54 33.0 °F /  0.6 °C 30.9 °F /  -0.6 °C 29.32in /  992.8hPa NW 2.0mph /  3.2km/h 6.0mph /  9.7km/h 92% 0.04in /  1.02mm
22:59 33.0 °F /  0.6 °C 30.9 °F /  -0.6 °C 29.32in /  992.8hPa NW 3.0mph /  4.8km/h 7.0mph /  11.3km/h 92% 0.03in /  0.76mm
23:04 33.0 °F /  0.6 °C 30.9 °F /  -0.6 °C 29.32in /  992.8hPa WNW 2.0mph /  3.2km/h 7.0mph /  11.3km/h 92% 0.02in /  0.51mm
23:09 32.9 °F /  0.5 °C 30.8 °F /  -0.7 °C 29.33in /  993.1hPa WNW 1.0mph /  1.6km/h 4.0mph /  6.4km/h 92% 0.01in /  0.25mm
23:14 32.9 °F /  0.5 °C 30.8 °F /  -0.7 °C 29.33in /  993.1hPa NW 2.0mph /  3.2km/h 7.0mph /  11.3km/h 92% 0.01in /  0.25mm
23:19 32.9 °F /  0.5 °C 30.8 °F /  -0.7 °C 29.33in /  993.1hPa NW 3.0mph /  4.8km/h 7.0mph /  11.3km/h 92% 0.00in /  0mm
23:24 33.0 °F /  0.6 °C 30.9 °F /  -0.6 °C 29.33in /  993.1hPa NW 3.0mph /  4.8km/h 9.0mph /  14.5km/h 92% 0.00in /  0mm
23:29 32.9 °F /  0.5 °C 30.8 °F /  -0.7 °C 29.33in /  993.1hPa NW 3.0mph /  4.8km/h 5.0mph /  8km/h 92% 0.00in /  0mm
23:34 32.9 °F /  0.5 °C 31.1 °F /  -0.5 °C 29.33in /  993.1hPa North 5.0mph /  8km/h 7.0mph /  11.3km/h 93% 0.00in /  0mm
23:39 32.9 °F /  0.5 °C 31.1 °F /  -0.5 °C 29.33in /  993.1hPa WNW 3.0mph /  4.8km/h 8.0mph /  12.9km/h 93% 0.00in /  0mm
23:44 32.9 °F /  0.5 °C 31.1 °F /  -0.5 °C 29.33in /  993.1hPa WNW 3.0mph /  4.8km/h 7.0mph /  11.3km/h 93% 0.00in /  0mm
23:49 32.9 °F /  0.5 °C 31.1 °F /  -0.5 °C 29.33in /  993.1hPa NW 4.0mph /  6.4km/h 7.0mph /  11.3km/h 93% 0.00in /  0mm
23:54 32.9 °F /  0.5 °C 31.1 °F /  -0.5 °C 29.33in /  993.1hPa NW 3.0mph /  4.8km/h 8.0mph /  12.9km/h 93% 0.00in /  0mm
23:59 32.9 °F /  0.5 °C 31.1 °F /  -0.5 °C 29.33in /  993.1hPa NW 3.0mph /  4.8km/h 8.0mph /  12.9km/h 93% 0.00in /  0mm
Buffalo, New York, USA
Compliments of Weather Underground - 2.25 mb